createdAt,value
2019-05-02T00:01:50.425Z,41.40
2019-05-02T00:04:21.319Z,46.83
2019-05-02T00:06:54.436Z,32.60
2019-05-02T00:09:24.821Z,41.70
2019-05-02T00:11:58.892Z,31.80
2019-05-02T00:14:28.228Z,28.87
2019-05-02T00:16:58.639Z,24.80
2019-05-02T00:19:29.256Z,23.45
2019-05-02T00:21:59.649Z,22.35
2019-05-02T00:24:33.955Z,24.57
2019-05-02T00:27:03.151Z,26.70
2019-05-02T00:29:33.271Z,17.15
2019-05-02T00:32:03.673Z,16.65
2019-05-02T00:34:34.014Z,18.30
2019-05-02T00:37:04.632Z,18.05
2019-05-02T00:39:34.918Z,16.55
2019-05-02T00:42:12.488Z,18.98
2019-05-02T00:44:37.232Z,17.50
2019-05-02T00:47:10.874Z,18.05
2019-05-02T00:49:40.616Z,17.30
2019-05-02T00:52:10.935Z,14.83
2019-05-02T00:54:41.193Z,14.80
2019-05-02T00:57:14.977Z,15.78
2019-05-02T00:59:43.579Z,13.93
2019-05-02T01:02:15.296Z,13.80
2019-05-02T01:04:46.969Z,13.13
2019-05-02T01:07:20.265Z,14.07
2019-05-02T01:09:49.457Z,13.83
2019-05-02T01:12:26.060Z,16.45
2019-05-02T01:14:51.683Z,15.40
2019-05-02T01:17:26.079Z,13.30
2019-05-02T01:19:54.469Z,13.75
2019-05-02T01:22:25.815Z,13.18
2019-05-02T01:24:55.788Z,14.28
2019-05-02T01:27:28.745Z,13.90
2019-05-02T01:30:06.066Z,14.47
2019-05-02T01:32:35.846Z,14.05
2019-05-02T01:35:09.566Z,12.90
2019-05-02T01:37:41.872Z,13.73
2019-05-02T01:40:13.060Z,12.95
2019-05-02T01:42:48.975Z,13.40
2019-05-02T01:45:16.347Z,12.93
2019-05-02T01:47:46.626Z,13.03
2019-05-02T01:50:17.105Z,11.83
2019-05-02T01:52:47.446Z,13.53
2019-05-02T01:55:21.167Z,12.45
2019-05-02T01:57:49.585Z,13.18
2019-05-02T02:00:19.929Z,11.80
2019-05-02T02:02:51.378Z,11.50
2019-05-02T02:05:21.796Z,11.73
2019-05-02T02:07:55.618Z,11.60
2019-05-02T02:10:23.987Z,20.23
2019-05-02T02:13:41.888Z,11.35
2019-05-02T02:16:12.484Z,12.60
2019-05-02T02:18:44.215Z,11.80
2019-05-02T02:21:20.140Z,12.03
2019-05-02T02:23:49.656Z,11.90
2019-05-02T02:26:21.941Z,11.08
2019-05-02T02:28:52.474Z,10.35
2019-05-02T02:31:23.384Z,10.68
2019-05-02T02:33:53.885Z,10.82
2019-05-02T02:36:31.659Z,10.10
2019-05-02T02:38:56.427Z,10.40
2019-05-02T02:41:27.026Z,9.95
2019-05-02T02:44:18.886Z,9.95
2019-05-02T02:46:50.392Z,11.25
2019-05-02T02:49:22.197Z,11.43
2019-05-02T02:51:57.938Z,11.87
2019-05-02T02:54:24.321Z,10.35
2019-05-02T02:56:55.794Z,11.15
2019-05-02T02:59:26.829Z,16.45
2019-05-02T03:02:09.185Z,18.90
2019-05-02T03:04:29.557Z,11.45
2019-05-02T03:07:01.239Z,10.10
2019-05-02T03:09:31.436Z,10.13
2019-05-02T03:12:04.524Z,10.28
2019-05-02T03:14:41.054Z,10.87
2019-05-02T03:17:08.414Z,10.80
2019-05-02T03:19:38.612Z,10.90
2019-05-02T03:22:08.837Z,10.13
2019-05-02T03:24:44.250Z,10.08
2019-05-02T03:27:10.844Z,20.95
2019-05-02T03:29:44.500Z,9.78
2019-05-02T03:32:21.856Z,10.67
2019-05-02T03:34:51.671Z,9.95
2019-05-02T03:37:16.749Z,12.55
2019-05-02T03:39:49.445Z,10.55
2019-05-02T03:42:18.891Z,10.30
2019-05-02T03:44:55.129Z,12.03
2019-05-02T03:47:20.849Z,10.00
2019-05-02T03:49:52.322Z,9.95
2019-05-02T03:52:22.325Z,9.50
2019-05-02T03:54:52.843Z,9.60
2019-05-02T03:57:32.254Z,9.38
2019-05-02T03:59:54.837Z,11.23
2019-05-02T04:02:25.578Z,8.75
2019-05-02T04:05:00.725Z,9.13
2019-05-02T04:07:27.945Z,8.78
2019-05-02T04:10:00.281Z,10.53
2019-05-02T04:12:33.050Z,8.45
2019-05-02T04:15:02.683Z,8.33
2019-05-02T04:17:35.604Z,8.37
2019-05-02T04:20:09.489Z,9.15
2019-05-02T04:22:42.670Z,8.43
2019-05-02T04:25:10.184Z,8.78
2019-05-02T04:27:40.723Z,8.33
2019-05-02T04:30:14.119Z,8.78
2019-05-02T04:32:43.284Z,8.43
2019-05-02T04:35:14.807Z,7.75
2019-05-02T04:37:45.022Z,8.50
2019-05-02T04:40:17.982Z,8.57
2019-05-02T04:42:53.349Z,9.10
2019-05-02T04:45:28.455Z,8.40
2019-05-02T04:47:58.996Z,8.68
2019-05-02T04:50:25.340Z,8.80
2019-05-02T04:52:54.710Z,8.90
2019-05-02T04:55:29.990Z,8.88
2019-05-02T04:57:58.787Z,9.65
2019-05-02T05:00:29.486Z,8.53
2019-05-02T05:02:59.957Z,9.00
2019-05-02T05:05:31.295Z,8.98
2019-05-02T05:08:01.801Z,9.53
2019-05-02T05:10:40.318Z,8.93
2019-05-02T05:13:07.620Z,8.43
2019-05-02T05:15:44.835Z,15.45
2019-05-02T05:18:12.602Z,8.88
2019-05-02T05:20:40.524Z,8.85
2019-05-02T05:23:15.611Z,8.93
2019-05-02T05:25:44.498Z,8.63
2019-05-02T05:28:14.705Z,8.50
2019-05-02T05:30:45.702Z,8.63
2019-05-02T05:33:18.259Z,8.20
2019-05-02T05:35:52.435Z,8.63
2019-05-02T05:38:23.066Z,8.17
2019-05-02T05:40:51.818Z,8.33
2019-05-02T05:43:22.041Z,11.53
2019-05-02T05:45:56.350Z,9.00
2019-05-02T05:48:23.947Z,8.98
2019-05-02T05:50:54.310Z,8.95
2019-05-02T05:53:24.570Z,8.73
2019-05-02T05:55:59.013Z,9.18
2019-05-02T05:58:28.400Z,7.85
2019-05-02T06:00:58.522Z,9.23
2019-05-02T06:03:28.709Z,8.18
2019-05-02T06:05:59.034Z,7.70
2019-05-02T06:08:29.867Z,9.63
2019-05-02T06:11:00.168Z,7.42
2019-05-02T06:13:30.490Z,8.78
2019-05-02T06:16:20.503Z,7.83
2019-05-02T06:18:51.100Z,7.85
2019-05-02T06:21:21.579Z,7.40
2019-05-02T06:23:51.831Z,7.47
2019-05-02T06:26:22.128Z,7.35
2019-05-02T06:28:52.613Z,10.18
2019-05-02T06:31:23.030Z,7.37
2019-05-02T06:33:53.222Z,6.90
2019-05-02T06:36:23.609Z,6.67
2019-05-02T06:38:56.607Z,7.30
2019-05-02T06:41:25.407Z,6.90
2019-05-02T06:43:55.878Z,6.57
2019-05-02T06:46:27.785Z,6.75
2019-05-02T06:48:57.703Z,6.75
2019-05-02T06:51:28.192Z,6.60
2019-05-02T06:53:58.699Z,6.53
2019-05-02T06:56:29.015Z,6.85
2019-05-02T06:58:59.268Z,7.33
2019-05-02T07:01:29.670Z,7.92
2019-05-02T07:04:04.067Z,6.67
2019-05-02T07:06:42.107Z,6.35
2019-05-02T07:09:05.924Z,6.72
2019-05-02T07:11:38.873Z,6.83
2019-05-02T07:14:13.364Z,7.60
2019-05-02T07:16:40.844Z,10.63
2019-05-02T07:19:12.419Z,7.72
2019-05-02T07:21:42.805Z,9.58
2019-05-02T07:24:13.268Z,8.45
2019-05-02T07:26:43.581Z,6.22
2019-05-02T07:29:17.061Z,6.03
2019-05-02T07:31:47.678Z,6.10
2019-05-02T07:34:17.044Z,6.40
2019-05-02T07:36:47.268Z,5.65
2019-05-02T07:39:18.192Z,6.00
2019-05-02T07:43:22.427Z,7.03
2019-05-02T07:45:52.925Z,6.55
2019-05-02T07:48:23.473Z,6.10
2019-05-02T07:50:53.998Z,8.03
2019-05-02T07:53:24.770Z,6.00
2019-05-02T07:55:55.045Z,5.00
2019-05-02T07:58:25.563Z,4.90
2019-05-02T08:00:55.984Z,5.75
2019-05-02T08:03:29.341Z,5.03
2019-05-02T08:05:58.890Z,5.50
2019-05-02T08:08:31.890Z,5.50
2019-05-02T08:11:03.234Z,5.60
2019-05-02T08:13:33.797Z,5.83
2019-05-02T08:16:04.071Z,6.20
2019-05-02T08:18:34.591Z,5.78
2019-05-02T08:21:06.009Z,5.30
2019-05-02T08:23:36.339Z,5.83
2019-05-02T08:26:06.796Z,6.17
2019-05-02T08:28:38.367Z,5.35
2019-05-02T08:31:08.666Z,5.80
2019-05-02T08:33:39.034Z,5.67
2019-05-02T08:36:09.465Z,10.77
2019-05-02T08:38:39.836Z,12.90
2019-05-02T08:41:10.078Z,7.45
2019-05-02T08:43:44.689Z,5.87
2019-05-02T08:46:14.481Z,8.13
2019-05-02T08:48:43.751Z,8.73
2019-05-02T08:51:14.298Z,6.30
2019-05-02T08:53:44.620Z,5.90
2019-05-02T08:56:16.499Z,8.93
2019-05-02T08:58:49.973Z,6.70
2019-05-02T09:01:18.019Z,5.75
2019-05-02T09:03:55.019Z,5.97
2019-05-02T09:06:22.491Z,5.70
2019-05-02T09:08:52.885Z,5.62
2019-05-02T09:11:23.347Z,5.72
2019-05-02T09:13:53.564Z,7.07
2019-05-02T09:16:28.796Z,6.37
2019-05-02T09:18:55.330Z,5.75
2019-05-02T09:21:26.806Z,7.47
2019-05-02T09:23:57.425Z,6.63
2019-05-02T09:26:37.807Z,6.12
2019-05-02T09:29:01.675Z,6.03
2019-05-02T09:31:31.957Z,8.63
2019-05-02T09:34:02.791Z,5.75
2019-05-02T09:36:33.350Z,5.97
2019-05-02T09:39:03.691Z,5.80
2019-05-02T09:41:36.283Z,10.98
2019-05-02T09:44:09.039Z,48.05
2019-05-02T09:46:39.021Z,7.35
2019-05-02T09:49:13.846Z,6.40
2019-05-02T09:51:42.023Z,6.87
2019-05-02T09:54:12.626Z,6.60
2019-05-02T09:56:43.174Z,5.92
2019-05-02T09:59:26.739Z,6.08
2019-05-02T10:01:45.970Z,6.15
2019-05-02T10:04:17.796Z,7.15
2019-05-02T10:06:52.469Z,9.27
2019-05-02T10:09:24.103Z,6.03
2019-05-02T10:11:54.887Z,12.78
2019-05-02T10:14:25.258Z,6.50
2019-05-02T10:17:01.843Z,7.05
2019-05-02T10:19:29.415Z,7.55
2019-05-02T10:21:59.512Z,5.55
2019-05-02T10:24:32.093Z,5.42
2019-05-02T10:27:04.095Z,5.75
2019-05-02T10:29:33.371Z,6.25
2019-05-02T10:32:07.667Z,5.60
2019-05-02T10:34:35.933Z,5.97
2019-05-02T10:37:06.537Z,6.97
2019-05-02T10:39:37.941Z,7.37
2019-05-02T10:42:08.586Z,7.08
2019-05-02T10:44:38.854Z,6.30
2019-05-02T10:47:10.257Z,5.37
2019-05-02T10:49:42.636Z,6.17
2019-05-02T10:52:13.059Z,10.38
2019-05-02T10:54:43.438Z,9.58
2019-05-02T10:57:13.872Z,8.00
2019-05-02T10:59:44.226Z,8.90
2019-05-02T11:02:15.891Z,9.48
2019-05-02T11:04:47.692Z,10.78
2019-05-02T11:07:22.784Z,10.05
2019-05-02T11:09:49.848Z,10.73
2019-05-02T11:12:25.440Z,9.90
2019-05-02T11:14:54.230Z,7.57
2019-05-02T11:17:25.863Z,7.05
2019-05-02T11:19:57.719Z,7.42
2019-05-02T11:22:28.164Z,6.77
2019-05-02T11:27:15.543Z,5.62
2019-05-02T11:29:45.940Z,6.87
2019-05-02T11:32:16.326Z,6.10
2019-05-02T11:34:46.767Z,6.45
2019-05-02T11:37:17.076Z,7.67
2019-05-02T11:39:53.254Z,9.28
2019-05-02T11:42:23.309Z,11.88
2019-05-02T11:44:52.296Z,10.00
2019-05-02T11:47:26.472Z,9.93
2019-05-02T11:49:55.935Z,13.55
2019-05-02T11:52:27.411Z,30.13
2019-05-02T11:54:57.528Z,31.87
2019-05-02T11:57:30.298Z,29.77
2019-05-02T12:00:03.657Z,23.57
2019-05-02T12:02:32.371Z,34.53
2019-05-02T12:05:02.803Z,52.08
2019-05-02T12:07:39.226Z,40.10
2019-05-02T12:10:14.778Z,28.47
2019-05-02T12:12:52.538Z,25.35
2019-05-02T12:15:21.845Z,22.90
2019-05-02T12:17:52.286Z,21.12
2019-05-02T12:20:22.782Z,20.12
2019-05-02T12:22:53.199Z,20.37
2019-05-02T12:25:23.345Z,20.17
2019-05-02T12:27:53.679Z,15.55
2019-05-02T12:30:24.004Z,14.20
2019-05-02T12:32:54.411Z,9.20
2019-05-02T12:35:24.794Z,10.65
2019-05-02T12:37:55.325Z,12.60
2019-05-02T12:40:25.799Z,12.95
2019-05-02T12:42:56.024Z,12.43
2019-05-02T12:45:27.240Z,11.90
2019-05-02T12:47:57.897Z,11.65
2019-05-02T12:50:28.340Z,11.77
2019-05-02T12:52:58.666Z,11.53
2019-05-02T12:55:29.018Z,11.70
2019-05-02T12:57:59.231Z,11.35
2019-05-02T13:00:31.864Z,12.90
2019-05-02T13:03:02.537Z,12.20
2019-05-02T13:05:33.113Z,12.00
2019-05-02T13:08:03.436Z,10.95
2019-05-02T13:10:35.264Z,10.85
2019-05-02T13:13:06.746Z,10.90
2019-05-02T13:15:37.559Z,11.80
2019-05-02T13:18:08.063Z,11.33
2019-05-02T13:20:39.007Z,11.03
2019-05-02T13:23:13.394Z,10.18
2019-05-02T13:25:43.716Z,9.85
2019-05-02T13:28:17.162Z,10.13
2019-05-02T13:30:47.067Z,9.63
2019-05-02T13:33:19.159Z,9.20
2019-05-02T13:35:51.912Z,9.43
2019-05-02T13:38:22.795Z,9.90
2019-05-02T13:40:53.120Z,9.80
2019-05-02T13:43:24.721Z,9.43
2019-05-02T13:45:56.300Z,9.15
2019-05-02T13:48:26.804Z,9.13
2019-05-02T13:50:57.296Z,9.35
2019-05-02T13:53:27.860Z,9.03
2019-05-02T13:55:59.553Z,9.40
2019-05-02T13:58:31.254Z,9.13
2019-05-02T14:01:03.338Z,10.10
2019-05-02T14:03:33.332Z,9.68
2019-05-02T14:06:03.455Z,9.63
2019-05-02T14:08:37.011Z,9.40
2019-05-02T14:11:08.598Z,9.37
2019-05-02T14:13:38.940Z,7.97
2019-05-02T14:16:09.345Z,7.72
2019-05-02T14:18:42.007Z,7.40
2019-05-02T14:21:12.622Z,7.83
2019-05-02T14:23:42.911Z,7.78
2019-05-02T14:26:13.247Z,8.08
2019-05-02T14:28:43.440Z,8.00
2019-05-02T14:31:13.751Z,7.50
2019-05-02T14:33:45.642Z,8.03
2019-05-02T14:36:16.009Z,8.23
2019-05-02T14:38:46.306Z,7.90
2019-05-02T14:41:17.973Z,7.50
2019-05-02T14:43:49.711Z,7.43
2019-05-02T14:46:22.120Z,7.90
2019-05-02T14:48:53.695Z,8.30
2019-05-02T14:51:27.689Z,8.00
2019-05-02T14:53:57.416Z,7.30
2019-05-02T14:56:28.735Z,6.50
2019-05-02T14:59:09.229Z,6.30
2019-05-02T15:01:38.403Z,6.67
2019-05-02T15:04:08.775Z,6.83
2019-05-02T15:06:45.453Z,6.35
2019-05-02T15:09:12.192Z,6.80
2019-05-02T15:11:46.011Z,6.73
2019-05-02T15:14:19.717Z,6.33
2019-05-02T15:16:49.722Z,6.53
2019-05-02T15:19:18.922Z,6.55
2019-05-02T15:21:54.371Z,6.33
2019-05-02T15:24:22.950Z,6.08
2019-05-02T15:26:52.784Z,5.92
2019-05-02T15:29:26.984Z,5.90
2019-05-02T15:31:58.010Z,5.92
2019-05-02T15:34:29.400Z,6.00
2019-05-02T15:36:59.573Z,6.10
2019-05-02T15:42:01.750Z,6.50
2019-05-02T15:44:31.991Z,5.90
2019-05-02T15:47:03.495Z,6.08
2019-05-02T15:49:36.582Z,6.50
2019-05-02T15:52:06.856Z,5.87
2019-05-02T15:54:37.427Z,6.30
2019-05-02T15:57:07.477Z,5.87
2019-05-02T15:59:42.317Z,5.80
2019-05-02T16:02:10.476Z,5.62
2019-05-02T16:04:41.969Z,6.25
2019-05-02T16:07:12.537Z,5.45
2019-05-02T16:09:43.195Z,5.70
2019-05-02T16:12:13.589Z,5.95
2019-05-02T16:14:43.770Z,5.95
2019-05-02T16:17:17.690Z,5.87
2019-05-02T16:19:47.002Z,6.00
2019-05-02T16:22:18.459Z,6.30
2019-05-02T16:24:50.755Z,6.40
2019-05-02T16:27:25.382Z,6.33
2019-05-02T16:29:58.281Z,6.75
2019-05-02T16:35:17.440Z,6.00
2019-05-02T16:37:52.331Z,6.33
2019-05-02T16:40:28.780Z,6.55
2019-05-02T16:42:52.824Z,6.30
2019-05-02T16:45:23.453Z,6.55
2019-05-02T16:47:58.817Z,6.83
2019-05-02T16:50:27.502Z,7.12
2019-05-02T16:52:57.653Z,8.25
2019-05-02T16:55:28.040Z,7.15
2019-05-02T16:58:02.777Z,7.70
2019-05-02T17:00:32.007Z,6.70
2019-05-02T17:03:03.862Z,6.70
2019-05-02T17:05:34.401Z,6.70
2019-05-02T17:08:10.450Z,7.15
2019-05-02T17:10:39.233Z,7.27
2019-05-02T17:13:09.716Z,7.57
2019-05-02T17:15:40.103Z,7.40
2019-05-02T17:18:13.352Z,8.55
2019-05-02T17:20:46.913Z,8.75
2019-05-02T17:23:14.197Z,8.60
2019-05-02T17:25:44.330Z,8.45
2019-05-02T17:28:14.740Z,8.90
2019-05-02T17:30:45.159Z,8.55
2019-05-02T17:33:16.440Z,8.70
2019-05-02T17:35:51.360Z,8.73
2019-05-02T17:38:19.228Z,8.70
2019-05-02T17:40:53.719Z,8.85
2019-05-02T17:43:22.681Z,8.78
2019-05-02T17:45:53.352Z,9.05
2019-05-02T17:48:23.734Z,8.58
2019-05-02T17:50:59.081Z,8.30
2019-05-02T17:53:27.134Z,8.83
2019-05-02T17:55:57.369Z,8.63
2019-05-02T17:58:27.607Z,7.97
2019-05-02T18:01:04.623Z,8.15
2019-05-02T18:03:35.592Z,8.50
2019-05-02T18:06:07.723Z,8.75
2019-05-02T18:08:37.875Z,9.13
2019-05-02T18:11:08.097Z,8.80
2019-05-02T18:13:38.426Z,8.55
2019-05-02T18:16:15.183Z,7.97
2019-05-02T18:18:43.805Z,7.40
2019-05-02T18:21:12.737Z,7.42
2019-05-02T18:23:42.951Z,7.67
2019-05-02T18:26:13.548Z,7.22
2019-05-02T18:28:49.050Z,7.17
2019-05-02T18:31:15.497Z,7.22
2019-05-02T18:33:46.472Z,6.92
2019-05-02T18:36:17.401Z,7.08
2019-05-02T18:38:52.538Z,7.08
2019-05-02T18:41:20.203Z,7.07
2019-05-02T18:43:52.133Z,7.33
2019-05-02T18:46:22.328Z,7.05
2019-05-02T18:48:52.721Z,7.42
2019-05-02T18:51:23.097Z,7.40
2019-05-02T18:53:57.875Z,8.20
2019-05-02T18:56:24.966Z,8.03
2019-05-02T18:58:55.408Z,7.90
2019-05-02T19:01:25.816Z,7.77
2019-05-02T19:03:56.386Z,6.90
2019-05-02T19:06:27.979Z,7.30
2019-05-02T19:09:02.133Z,8.33
2019-05-02T19:11:35.304Z,8.33
2019-05-02T19:14:04.667Z,8.45
2019-05-02T19:16:35.154Z,9.40
2019-05-02T19:19:05.585Z,9.20
2019-05-02T19:21:39.375Z,8.90
2019-05-02T19:24:08.454Z,8.48
2019-05-02T19:26:41.715Z,8.20
2019-05-02T19:29:15.707Z,7.83
2019-05-02T19:31:46.190Z,7.80
2019-05-02T19:34:16.829Z,7.92
2019-05-02T19:36:47.240Z,6.97
2019-05-02T19:39:17.969Z,7.30
2019-05-02T19:41:48.195Z,6.55
2019-05-02T19:44:21.539Z,6.70
2019-05-02T19:46:51.822Z,6.40
2019-05-02T19:49:23.079Z,6.50
2019-05-02T19:51:56.525Z,6.20
2019-05-02T19:54:25.170Z,6.60
2019-05-02T19:56:55.373Z,6.83
2019-05-02T19:59:26.803Z,6.30
2019-05-02T20:02:01.724Z,6.65
2019-05-02T20:04:28.782Z,6.70
2019-05-02T20:06:59.085Z,6.75
2019-05-02T20:09:29.375Z,6.53
2019-05-02T20:12:05.077Z,6.97
2019-05-02T20:14:32.093Z,6.58
2019-05-02T20:17:03.067Z,6.50
2019-05-02T20:19:34.897Z,6.75
2019-05-02T20:22:07.185Z,7.40
2019-05-02T20:24:38.806Z,7.10
2019-05-02T20:27:08.883Z,7.63
2019-05-02T20:29:39.203Z,7.15
2019-05-02T20:32:09.485Z,7.10
2019-05-02T20:34:41.752Z,7.10
2019-05-02T20:37:12.754Z,7.00
2019-05-02T20:39:43.411Z,6.65
2019-05-02T20:42:13.857Z,6.72
2019-05-02T20:44:44.104Z,6.80
2019-05-02T20:47:17.545Z,6.53
2019-05-02T20:49:47.878Z,6.72
2019-05-02T20:52:18.170Z,6.58
2019-05-02T20:54:48.512Z,7.05
2019-05-02T20:57:18.773Z,6.70
2019-05-02T20:59:49.139Z,6.92
2019-05-02T21:02:20.246Z,6.85
2019-05-02T21:04:52.195Z,6.60
2019-05-02T21:07:23.821Z,6.83
2019-05-02T21:09:55.323Z,7.28
2019-05-02T21:12:25.717Z,6.50
2019-05-02T21:14:56.086Z,7.17
2019-05-02T21:17:26.384Z,7.12
2019-05-02T21:19:56.677Z,6.90
2019-05-02T21:22:29.573Z,7.10
2019-05-02T21:25:02.322Z,7.10
2019-05-02T21:27:32.593Z,7.17
2019-05-02T21:30:02.698Z,7.50
2019-05-02T21:32:33.054Z,6.92
2019-05-02T21:35:03.466Z,7.30
2019-05-02T21:37:33.750Z,7.30
2019-05-02T21:40:04.518Z,7.20
2019-05-02T21:42:34.670Z,7.33
2019-05-02T21:45:05.187Z,7.00
2019-05-02T21:47:35.421Z,7.15
2019-05-02T21:50:09.245Z,6.70
2019-05-02T21:52:42.361Z,7.15
2019-05-02T21:55:14.399Z,7.10
2019-05-02T21:57:44.850Z,7.60
2019-05-02T22:00:19.256Z,7.87
2019-05-02T22:02:49.374Z,7.97
2019-05-02T22:05:19.684Z,8.10
2019-05-02T22:07:52.044Z,8.73
2019-05-02T22:10:22.733Z,8.78
2019-05-02T22:12:53.333Z,8.73
2019-05-02T22:15:23.504Z,9.40
2019-05-02T22:17:53.729Z,9.25
2019-05-02T22:20:24.148Z,9.63
2019-05-02T22:22:54.376Z,10.45
2019-05-02T22:25:24.589Z,11.48
2019-05-02T22:27:55.013Z,11.88
2019-05-02T22:30:25.386Z,12.43
2019-05-02T22:32:56.636Z,12.90
2019-05-02T22:35:26.963Z,13.07
2019-05-02T22:37:58.446Z,11.70
2019-05-02T22:40:28.516Z,11.80
2019-05-02T22:42:58.992Z,11.78
2019-05-02T22:45:29.302Z,11.48
2019-05-02T22:47:59.662Z,12.30
2019-05-02T22:50:29.769Z,12.05
2019-05-02T22:53:00.133Z,12.58
2019-05-02T22:55:31.907Z,13.60
2019-05-02T22:58:02.384Z,12.88
2019-05-02T23:00:32.656Z,12.82
2019-05-02T23:03:02.984Z,12.70
2019-05-02T23:05:34.380Z,12.20
2019-05-02T23:08:04.705Z,11.67
2019-05-02T23:10:35.106Z,11.25
2019-05-02T23:13:05.763Z,10.98
2019-05-02T23:15:36.151Z,10.28
2019-05-02T23:18:07.312Z,10.28
2019-05-02T23:20:37.565Z,10.13
2019-05-02T23:23:08.010Z,9.90
2019-05-02T23:25:39.521Z,10.20
2019-05-02T23:28:11.210Z,10.20
2019-05-02T23:30:42.425Z,9.80
2019-05-02T23:33:12.966Z,10.03
2019-05-02T23:35:43.541Z,10.10
2019-05-02T23:38:13.747Z,9.90
2019-05-02T23:40:43.983Z,10.65
2019-05-02T23:43:14.454Z,10.32
2019-05-02T23:45:44.625Z,10.45
2019-05-02T23:48:15.066Z,9.70
2019-05-02T23:50:45.442Z,9.73
2019-05-02T23:53:15.783Z,9.50
2019-05-02T23:55:45.991Z,9.55
2019-05-02T23:58:16.426Z,9.90
